sensor_id;sensor_type;location;lat;lon;timestamp;P1;durP1;ratioP1;P2;durP2;ratioP2
1082;SDS011;530;51.448;7.238;2023-04-01T00:01:38;4.53;;;1.50;;
1082;SDS011;530;51.448;7.238;2023-04-01T00:04:04;3.17;;;1.53;;
1082;SDS011;530;51.448;7.238;2023-04-01T00:06:30;3.13;;;2.03;;
1082;SDS011;530;51.448;7.238;2023-04-01T00:08:56;2.63;;;1.30;;
1082;SDS011;530;51.448;7.238;2023-04-01T00:11:21;1.17;;;1.00;;
1082;SDS011;530;51.448;7.238;2023-04-01T00:13:48;1.87;;;1.33;;
1082;SDS011;530;51.448;7.238;2023-04-01T00:16:13;1.60;;;1.00;;
1082;SDS011;530;51.448;7.238;2023-04-01T00:18:39;3.20;;;1.63;;
1082;SDS011;530;51.448;7.238;2023-04-01T00:21:06;2.03;;;1.20;;
1082;SDS011;530;51.448;7.238;2023-04-01T00:23:32;2.30;;;1.80;;
1082;SDS011;530;51.448;7.238;2023-04-01T00:26:02;1.60;;;1.10;;
1082;SDS011;530;51.448;7.238;2023-04-01T00:28:28;1.77;;;1.33;;
1082;SDS011;530;51.448;7.238;2023-04-01T00:30:54;3.83;;;1.60;;
1082;SDS011;530;51.448;7.238;2023-04-01T00:33:19;2.90;;;1.27;;
1082;SDS011;530;51.448;7.238;2023-04-01T00:35:45;1.70;;;1.30;;
1082;SDS011;530;51.448;7.238;2023-04-01T00:38:12;1.50;;;1.40;;
1082;SDS011;530;51.448;7.238;2023-04-01T00:40:39;1.60;;;1.40;;
1082;SDS011;530;51.448;7.238;2023-04-01T00:43:11;3.50;;;1.30;;
1082;SDS011;530;51.448;7.238;2023-04-01T00:45:40;3.13;;;1.50;;
1082;SDS011;530;51.448;7.238;2023-04-01T00:48:09;3.47;;;1.50;;
1082;SDS011;530;51.448;7.238;2023-04-01T00:50:38;2.07;;;1.10;;
1082;SDS011;530;51.448;7.238;2023-04-01T00:53:07;4.17;;;1.40;;
1082;SDS011;530;51.448;7.238;2023-04-01T00:55:34;1.67;;;1.10;;
1082;SDS011;530;51.448;7.238;2023-04-01T00:58:04;2.40;;;1.40;;
1082;SDS011;530;51.448;7.238;2023-04-01T01:00:32;1.50;;;1.40;;
1082;SDS011;530;51.448;7.238;2023-04-01T01:03:00;1.80;;;1.20;;
1082;SDS011;530;51.448;7.238;2023-04-01T01:05:33;1.30;;;1.20;;
1082;SDS011;530;51.448;7.238;2023-04-01T01:08:23;2.20;;;1.10;;
1082;SDS011;530;51.448;7.238;2023-04-01T01:10:57;2.93;;;1.07;;
1082;SDS011;530;51.448;7.238;2023-04-01T01:38:00;1.63;;;1.10;;
1082;SDS011;530;51.448;7.238;2023-04-01T01:40:31;2.50;;;1.30;;
1082;SDS011;530;51.448;7.238;2023-04-01T01:43:03;2.03;;;1.40;;
1082;SDS011;530;51.448;7.238;2023-04-01T01:45:35;1.43;;;1.10;;
1082;SDS011;530;51.448;7.238;2023-04-01T01:48:05;1.33;;;1.10;;
1082;SDS011;530;51.448;7.238;2023-04-01T01:50:34;1.83;;;0.80;;
1082;SDS011;530;51.448;7.238;2023-04-01T01:53:05;1.43;;;1.00;;
1082;SDS011;530;51.448;7.238;2023-04-01T01:55:37;1.53;;;1.03;;
1082;SDS011;530;51.448;7.238;2023-04-01T01:58:11;1.33;;;1.03;;
1082;SDS011;530;51.448;7.238;2023-04-01T02:01:06;3.40;;;1.20;;
1082;SDS011;530;51.448;7.238;2023-04-01T02:03:35;1.37;;;1.17;;
1082;SDS011;530;51.448;7.238;2023-04-01T02:06:04;1.20;;;1.10;;
1082;SDS011;530;51.448;7.238;2023-04-01T02:08:35;1.57;;;0.97;;
1082;SDS011;530;51.448;7.238;2023-04-01T02:11:07;1.70;;;1.20;;
1082;SDS011;530;51.448;7.238;2023-04-01T02:13:37;2.00;;;1.30;;
1082;SDS011;530;51.448;7.238;2023-04-01T02:16:19;1.57;;;1.30;;
1082;SDS011;530;51.448;7.238;2023-04-01T02:18:48;1.93;;;1.00;;
1082;SDS011;530;51.448;7.238;2023-04-01T02:21:16;1.63;;;1.10;;
1082;SDS011;530;51.448;7.238;2023-04-01T02:23:44;2.60;;;1.10;;
1082;SDS011;530;51.448;7.238;2023-04-01T02:26:11;1.40;;;1.00;;
1082;SDS011;530;51.448;7.238;2023-04-01T02:28:39;1.70;;;1.20;;
1082;SDS011;530;51.448;7.238;2023-04-01T02:31:08;1.40;;;1.20;;
1082;SDS011;530;51.448;7.238;2023-04-01T02:33:36;1.40;;;1.13;;
1082;SDS011;530;51.448;7.238;2023-04-01T02:36:03;2.20;;;1.40;;
1082;SDS011;530;51.448;7.238;2023-04-01T02:38:29;2.80;;;1.30;;
1082;SDS011;530;51.448;7.238;2023-04-01T02:40:59;1.73;;;1.07;;
1082;SDS011;530;51.448;7.238;2023-04-01T02:43:26;2.37;;;1.10;;
1082;SDS011;530;51.448;7.238;2023-04-01T02:45:52;1.93;;;0.90;;
1082;SDS011;530;51.448;7.238;2023-04-01T02:48:18;1.30;;;1.10;;
1082;SDS011;530;51.448;7.238;2023-04-01T02:50:44;1.00;;;0.80;;
1082;SDS011;530;51.448;7.238;2023-04-01T02:53:10;0.93;;;0.80;;
1082;SDS011;530;51.448;7.238;2023-04-01T02:55:36;1.23;;;0.63;;
1082;SDS011;530;51.448;7.238;2023-04-01T02:58:02;2.40;;;0.93;;
1082;SDS011;530;51.448;7.238;2023-04-01T03:00:28;1.00;;;0.60;;
1082;SDS011;530;51.448;7.238;2023-04-01T03:02:53;1.77;;;0.70;;
1082;SDS011;530;51.448;7.238;2023-04-01T03:05:19;0.73;;;0.53;;
1082;SDS011;530;51.448;7.238;2023-04-01T03:07:46;1.53;;;0.80;;
1082;SDS011;530;51.448;7.238;2023-04-01T03:10:12;1.00;;;0.60;;
1082;SDS011;530;51.448;7.238;2023-04-01T03:12:37;0.90;;;0.70;;
1082;SDS011;530;51.448;7.238;2023-04-01T03:15:03;0.90;;;0.63;;
1082;SDS011;530;51.448;7.238;2023-04-01T03:17:30;2.67;;;0.40;;
1082;SDS011;530;51.448;7.238;2023-04-01T03:19:55;0.70;;;0.40;;
1082;SDS011;530;51.448;7.238;2023-04-01T03:22:21;0.70;;;0.60;;
1082;SDS011;530;51.448;7.238;2023-04-01T03:24:47;1.40;;;0.63;;
1082;SDS011;530;51.448;7.238;2023-04-01T03:27:13;0.70;;;0.60;;
1082;SDS011;530;51.448;7.238;2023-04-01T03:29:39;0.70;;;0.57;;
1082;SDS011;530;51.448;7.238;2023-04-01T03:32:05;2.10;;;0.77;;
1082;SDS011;530;51.448;7.238;2023-04-01T03:34:31;0.67;;;0.57;;
1082;SDS011;530;51.448;7.238;2023-04-01T03:36:57;2.60;;;0.80;;
1082;SDS011;530;51.448;7.238;2023-04-01T03:39:23;1.47;;;0.40;;
1082;SDS011;530;51.448;7.238;2023-04-01T03:41:48;1.43;;;0.60;;
1082;SDS011;530;51.448;7.238;2023-04-01T03:44:14;1.47;;;0.70;;
1082;SDS011;530;51.448;7.238;2023-04-01T03:46:40;0.73;;;0.60;;
1082;SDS011;530;51.448;7.238;2023-04-01T03:49:06;1.50;;;0.70;;
1082;SDS011;530;51.448;7.238;2023-04-01T03:51:39;1.13;;;0.77;;
1082;SDS011;530;51.448;7.238;2023-04-01T03:54:07;0.80;;;0.80;;
1082;SDS011;530;51.448;7.238;2023-04-01T03:56:33;1.43;;;1.00;;
1082;SDS011;530;51.448;7.238;2023-04-01T03:59:01;0.80;;;0.80;;
1082;SDS011;530;51.448;7.238;2023-04-01T04:01:28;1.33;;;0.90;;
1082;SDS011;530;51.448;7.238;2023-04-01T04:03:54;1.07;;;0.97;;
1082;SDS011;530;51.448;7.238;2023-04-01T04:06:21;1.23;;;1.00;;
1082;SDS011;530;51.448;7.238;2023-04-01T04:08:47;1.40;;;1.10;;
1082;SDS011;530;51.448;7.238;2023-04-01T04:11:13;2.50;;;1.70;;
1082;SDS011;530;51.448;7.238;2023-04-01T04:13:38;1.77;;;1.10;;
1082;SDS011;530;51.448;7.238;2023-04-01T04:16:05;1.33;;;1.07;;
1082;SDS011;530;51.448;7.238;2023-04-01T04:18:31;1.87;;;1.17;;
1082;SDS011;530;51.448;7.238;2023-04-01T04:20:56;1.67;;;1.00;;
1082;SDS011;530;51.448;7.238;2023-04-01T04:23:22;0.80;;;0.70;;
1082;SDS011;530;51.448;7.238;2023-04-01T04:25:57;1.20;;;0.87;;
1082;SDS011;530;51.448;7.238;2023-04-01T04:28:25;1.23;;;0.70;;
1082;SDS011;530;51.448;7.238;2023-04-01T04:30:52;1.50;;;0.90;;
1082;SDS011;530;51.448;7.238;2023-04-01T04:33:18;1.83;;;0.90;;
1082;SDS011;530;51.448;7.238;2023-04-01T04:35:44;1.67;;;1.00;;
1082;SDS011;530;51.448;7.238;2023-04-01T04:38:10;1.00;;;0.90;;
1082;SDS011;530;51.448;7.238;2023-04-01T04:40:36;1.40;;;0.87;;
1082;SDS011;530;51.448;7.238;2023-04-01T04:43:03;1.20;;;1.20;;
1082;SDS011;530;51.448;7.238;2023-04-01T04:45:28;1.67;;;1.03;;
1082;SDS011;530;51.448;7.238;2023-04-01T04:47:55;1.57;;;1.47;;
1082;SDS011;530;51.448;7.238;2023-04-01T04:50:21;3.17;;;1.10;;
1082;SDS011;530;51.448;7.238;2023-04-01T04:52:47;1.50;;;1.40;;
1082;SDS011;530;51.448;7.238;2023-04-01T04:55:12;1.33;;;1.23;;
1082;SDS011;530;51.448;7.238;2023-04-01T04:57:39;1.00;;;0.70;;
1082;SDS011;530;51.448;7.238;2023-04-01T05:00:06;1.20;;;0.80;;
1082;SDS011;530;51.448;7.238;2023-04-01T05:02:32;1.50;;;0.63;;
1082;SDS011;530;51.448;7.238;2023-04-01T05:04:59;0.80;;;0.80;;
1082;SDS011;530;51.448;7.238;2023-04-01T05:07:25;1.27;;;0.80;;
1082;SDS011;530;51.448;7.238;2023-04-01T05:09:50;1.10;;;1.00;;
1082;SDS011;530;51.448;7.238;2023-04-01T05:12:16;0.70;;;0.70;;
1082;SDS011;530;51.448;7.238;2023-04-01T05:14:42;1.47;;;1.00;;
1082;SDS011;530;51.448;7.238;2023-04-01T05:17:11;1.00;;;0.90;;
1082;SDS011;530;51.448;7.238;2023-04-01T05:19:38;0.90;;;0.83;;
1082;SDS011;530;51.448;7.238;2023-04-01T05:22:04;1.20;;;1.00;;
1082;SDS011;530;51.448;7.238;2023-04-01T05:24:31;1.20;;;1.10;;
1082;SDS011;530;51.448;7.238;2023-04-01T05:26:57;1.40;;;1.17;;
1082;SDS011;530;51.448;7.238;2023-04-01T05:29:23;0.90;;;0.90;;
1082;SDS011;530;51.448;7.238;2023-04-01T05:31:50;1.30;;;1.20;;
1082;SDS011;530;51.448;7.238;2023-04-01T05:34:15;1.43;;;0.90;;
1082;SDS011;530;51.448;7.238;2023-04-01T05:36:41;1.20;;;1.10;;
1082;SDS011;530;51.448;7.238;2023-04-01T05:39:08;1.00;;;1.00;;
1082;SDS011;530;51.448;7.238;2023-04-01T05:41:37;1.10;;;1.10;;
1082;SDS011;530;51.448;7.238;2023-04-01T05:44:04;1.17;;;1.07;;
1082;SDS011;530;51.448;7.238;2023-04-01T05:46:30;1.40;;;1.30;;
1082;SDS011;530;51.448;7.238;2023-04-01T05:48:56;1.00;;;0.90;;
1082;SDS011;530;51.448;7.238;2023-04-01T05:51:22;1.10;;;1.00;;
1082;SDS011;530;51.448;7.238;2023-04-01T05:53:48;1.30;;;0.90;;
1082;SDS011;530;51.448;7.238;2023-04-01T05:56:14;1.33;;;1.10;;
1082;SDS011;530;51.448;7.238;2023-04-01T05:58:40;1.30;;;1.20;;
1082;SDS011;530;51.448;7.238;2023-04-01T06:01:06;1.20;;;0.80;;
1082;SDS011;530;51.448;7.238;2023-04-01T06:03:35;0.80;;;0.80;;
1082;SDS011;530;51.448;7.238;2023-04-01T06:06:01;1.00;;;1.00;;
1082;SDS011;530;51.448;7.238;2023-04-01T06:08:27;1.13;;;1.03;;
1082;SDS011;530;51.448;7.238;2023-04-01T06:55:02;1.50;;;0.90;;
1082;SDS011;530;51.448;7.238;2023-04-01T06:58:04;0.80;;;0.80;;
1082;SDS011;530;51.448;7.238;2023-04-01T07:00:36;1.47;;;1.37;;
1082;SDS011;530;51.448;7.238;2023-04-01T07:03:18;1.10;;;0.83;;
1082;SDS011;530;51.448;7.238;2023-04-01T07:06:03;1.07;;;0.97;;
1082;SDS011;530;51.448;7.238;2023-04-01T07:08:31;1.30;;;1.20;;
1082;SDS011;530;51.448;7.238;2023-04-01T07:11:04;1.47;;;1.30;;
1082;SDS011;530;51.448;7.238;2023-04-01T07:13:33;1.07;;;0.97;;
1082;SDS011;530;51.448;7.238;2023-04-01T07:16:15;1.93;;;1.30;;
1082;SDS011;530;51.448;7.238;2023-04-01T07:18:50;1.73;;;1.40;;
1082;SDS011;530;51.448;7.238;2023-04-01T07:21:22;1.83;;;1.40;;
1082;SDS011;530;51.448;7.238;2023-04-01T07:23:54;1.80;;;1.13;;
1082;SDS011;530;51.448;7.238;2023-04-01T07:26:25;1.90;;;1.60;;
1082;SDS011;530;51.448;7.238;2023-04-01T07:28:52;1.90;;;1.50;;
1082;SDS011;530;51.448;7.238;2023-04-01T07:31:20;1.30;;;1.17;;
1082;SDS011;530;51.448;7.238;2023-04-01T07:36:45;1.20;;;1.00;;
1082;SDS011;530;51.448;7.238;2023-04-01T07:45:05;1.97;;;1.30;;
1082;SDS011;530;51.448;7.238;2023-04-01T07:48:08;1.70;;;0.93;;
1082;SDS011;530;51.448;7.238;2023-04-01T07:53:35;1.20;;;1.10;;
1082;SDS011;530;51.448;7.238;2023-04-01T07:56:06;1.43;;;1.10;;
1082;SDS011;530;51.448;7.238;2023-04-01T08:01:40;1.20;;;1.10;;
1082;SDS011;530;51.448;7.238;2023-04-01T08:06:56;1.40;;;1.30;;
1082;SDS011;530;51.448;7.238;2023-04-01T08:23:21;1.60;;;1.30;;
1082;SDS011;530;51.448;7.238;2023-04-01T08:26:02;1.50;;;1.40;;
1082;SDS011;530;51.448;7.238;2023-04-01T08:28:46;1.40;;;1.30;;
1082;SDS011;530;51.448;7.238;2023-04-01T08:31:35;1.37;;;1.27;;
1082;SDS011;530;51.448;7.238;2023-04-01T08:34:15;1.73;;;1.63;;
1082;SDS011;530;51.448;7.238;2023-04-01T08:36:57;1.80;;;1.50;;
1082;SDS011;530;51.448;7.238;2023-04-01T09:02:19;2.70;;;2.10;;
1082;SDS011;530;51.448;7.238;2023-04-01T09:18:42;2.60;;;2.20;;
1082;SDS011;530;51.448;7.238;2023-04-01T09:24:18;2.83;;;2.63;;
1082;SDS011;530;51.448;7.238;2023-04-01T09:35:48;3.30;;;3.00;;
1082;SDS011;530;51.448;7.238;2023-04-01T09:38:28;4.37;;;3.60;;
1082;SDS011;530;51.448;7.238;2023-04-01T09:41:23;5.27;;;4.20;;
1082;SDS011;530;51.448;7.238;2023-04-01T10:06:12;6.80;;;6.10;;
1082;SDS011;530;51.448;7.238;2023-04-01T10:11:50;6.13;;;5.53;;
1082;SDS011;530;51.448;7.238;2023-04-01T10:28:35;7.40;;;6.10;;
1082;SDS011;530;51.448;7.238;2023-04-01T10:36:56;8.63;;;5.43;;
1082;SDS011;530;51.448;7.238;2023-04-01T11:29:08;5.50;;;5.00;;
1082;SDS011;530;51.448;7.238;2023-04-01T11:31:47;9.53;;;5.20;;
1082;SDS011;530;51.448;7.238;2023-04-01T11:37:17;5.73;;;4.90;;
1082;SDS011;530;51.448;7.238;2023-04-01T11:39:56;7.00;;;5.30;;
1082;SDS011;530;51.448;7.238;2023-04-01T11:53:52;6.00;;;5.40;;
1082;SDS011;530;51.448;7.238;2023-04-01T12:19:44;4.60;;;4.20;;
1082;SDS011;530;51.448;7.238;2023-04-01T12:31:03;4.37;;;3.97;;
1082;SDS011;530;51.448;7.238;2023-04-01T12:50:19;7.00;;;5.47;;
1082;SDS011;530;51.448;7.238;2023-04-01T12:53:36;6.70;;;6.00;;
1082;SDS011;530;51.448;7.238;2023-04-01T12:56:18;6.30;;;5.70;;
1082;SDS011;530;51.448;7.238;2023-04-01T13:04:37;6.10;;;5.50;;
1082;SDS011;530;51.448;7.238;2023-04-01T13:10:36;7.50;;;6.80;;
1082;SDS011;530;51.448;7.238;2023-04-01T13:16:23;8.27;;;7.50;;
1082;SDS011;530;51.448;7.238;2023-04-01T13:18:57;7.40;;;6.70;;
1082;SDS011;530;51.448;7.238;2023-04-01T13:30:01;8.30;;;7.50;;
1082;SDS011;530;51.448;7.238;2023-04-01T13:35:10;8.20;;;7.43;;
1082;SDS011;530;51.448;7.238;2023-04-01T13:38:12;8.37;;;7.60;;
1082;SDS011;530;51.448;7.238;2023-04-01T13:58:01;8.43;;;7.33;;
1082;SDS011;530;51.448;7.238;2023-04-01T14:00:44;7.53;;;6.83;;
1082;SDS011;530;51.448;7.238;2023-04-01T14:22:40;7.10;;;6.40;;
1082;SDS011;530;51.448;7.238;2023-04-01T14:28:08;6.47;;;5.87;;
1082;SDS011;530;51.448;7.238;2023-04-01T14:36:08;6.83;;;5.60;;
1082;SDS011;530;51.448;7.238;2023-04-01T14:51:41;8.50;;;6.93;;
1082;SDS011;530;51.448;7.238;2023-04-01T14:56:38;8.60;;;7.23;;
1082;SDS011;530;51.448;7.238;2023-04-01T14:59:28;7.67;;;6.87;;
1082;SDS011;530;51.448;7.238;2023-04-01T15:01:56;7.23;;;6.53;;
1082;SDS011;530;51.448;7.238;2023-04-01T15:24:26;8.40;;;7.60;;
1082;SDS011;530;51.448;7.238;2023-04-01T15:33:06;9.63;;;8.60;;
1082;SDS011;530;51.448;7.238;2023-04-01T15:35:36;7.70;;;6.97;;
1082;SDS011;530;51.448;7.238;2023-04-01T16:00:30;7.63;;;6.93;;
1082;SDS011;530;51.448;7.238;2023-04-01T16:06:08;7.00;;;6.30;;
1082;SDS011;530;51.448;7.238;2023-04-01T16:28:28;8.83;;;8.03;;
1082;SDS011;530;51.448;7.238;2023-04-01T16:30:37;8.70;;;7.87;;
1082;SDS011;530;51.448;7.238;2023-04-01T16:33:17;7.07;;;6.47;;
1082;SDS011;530;51.448;7.238;2023-04-01T16:41:11;7.73;;;7.03;;
1082;SDS011;530;51.448;7.238;2023-04-01T16:43:39;8.10;;;7.30;;
1082;SDS011;530;51.448;7.238;2023-04-01T16:51:54;7.60;;;6.20;;
1082;SDS011;530;51.448;7.238;2023-04-01T16:59:35;7.37;;;6.67;;
1082;SDS011;530;51.448;7.238;2023-04-01T17:02:17;7.90;;;7.20;;
1082;SDS011;530;51.448;7.238;2023-04-01T17:04:57;7.50;;;6.37;;
1082;SDS011;530;51.448;7.238;2023-04-01T17:07:38;6.77;;;6.07;;
1082;SDS011;530;51.448;7.238;2023-04-01T17:21:16;8.30;;;6.77;;
1082;SDS011;530;51.448;7.238;2023-04-01T17:39:56;6.60;;;5.87;;
1082;SDS011;530;51.448;7.238;2023-04-01T17:48:03;6.27;;;5.77;;
1082;SDS011;530;51.448;7.238;2023-04-01T17:53:39;6.70;;;6.10;;
1082;SDS011;530;51.448;7.238;2023-04-01T18:07:31;7.73;;;7.00;;
1082;SDS011;530;51.448;7.238;2023-04-01T18:29:48;10.90;;;9.40;;
1082;SDS011;530;51.448;7.238;2023-04-01T18:32:34;9.87;;;8.87;;
1082;SDS011;530;51.448;7.238;2023-04-01T18:37:44;10.40;;;9.23;;
1082;SDS011;530;51.448;7.238;2023-04-01T18:40:28;10.13;;;9.00;;
1082;SDS011;530;51.448;7.238;2023-04-01T18:51:47;11.67;;;9.57;;
1082;SDS011;530;51.448;7.238;2023-04-01T18:54:27;9.60;;;8.63;;
1082;SDS011;530;51.448;7.238;2023-04-01T18:57:13;9.40;;;8.23;;
1082;SDS011;530;51.448;7.238;2023-04-01T19:05:12;10.73;;;8.87;;
1082;SDS011;530;51.448;7.238;2023-04-01T19:18:48;7.77;;;6.80;;
1082;SDS011;530;51.448;7.238;2023-04-01T19:24:32;5.87;;;4.50;;
1082;SDS011;530;51.448;7.238;2023-04-01T19:32:32;6.10;;;4.87;;
1082;SDS011;530;51.448;7.238;2023-04-01T19:38:15;6.03;;;5.00;;
1082;SDS011;530;51.448;7.238;2023-04-01T19:43:54;6.33;;;4.30;;
1082;SDS011;530;51.448;7.238;2023-04-01T19:46:49;5.37;;;4.87;;
1082;SDS011;530;51.448;7.238;2023-04-01T20:14:07;3.93;;;3.60;;
1082;SDS011;530;51.448;7.238;2023-04-01T20:19:21;3.53;;;3.17;;
1082;SDS011;530;51.448;7.238;2023-04-01T20:22:32;3.90;;;3.60;;
1082;SDS011;530;51.448;7.238;2023-04-01T20:25:54;3.50;;;3.20;;
1082;SDS011;530;51.448;7.238;2023-04-01T20:28:02;3.33;;;3.03;;
1082;SDS011;530;51.448;7.238;2023-04-01T20:33:35;3.50;;;3.20;;
1082;SDS011;530;51.448;7.238;2023-04-01T20:45:22;4.23;;;3.87;;
1082;SDS011;530;51.448;7.238;2023-04-01T20:48:02;4.43;;;4.03;;
1082;SDS011;530;51.448;7.238;2023-04-01T20:50:58;5.53;;;5.03;;
1082;SDS011;530;51.448;7.238;2023-04-01T20:53:50;5.47;;;4.97;;
1082;SDS011;530;51.448;7.238;2023-04-01T21:01:51;6.93;;;6.23;;
1082;SDS011;530;51.448;7.238;2023-04-01T21:07:41;7.43;;;6.73;;
1082;SDS011;530;51.448;7.238;2023-04-01T21:16:01;7.70;;;7.00;;
1082;SDS011;530;51.448;7.238;2023-04-01T21:35:00;8.30;;;7.50;;
1082;SDS011;530;51.448;7.238;2023-04-01T21:37:54;8.10;;;7.30;;
1082;SDS011;530;51.448;7.238;2023-04-01T21:41:01;6.53;;;5.93;;
1082;SDS011;530;51.448;7.238;2023-04-01T21:43:44;7.67;;;6.87;;
1082;SDS011;530;51.448;7.238;2023-04-01T21:58:36;6.03;;;5.43;;
1082;SDS011;530;51.448;7.238;2023-04-01T22:06:41;6.03;;;5.53;;
1082;SDS011;530;51.448;7.238;2023-04-01T22:12:30;7.27;;;6.33;;
1082;SDS011;530;51.448;7.238;2023-04-01T22:22:58;9.20;;;8.30;;
1082;SDS011;530;51.448;7.238;2023-04-01T22:28:29;7.80;;;7.07;;
1082;SDS011;530;51.448;7.238;2023-04-01T22:31:23;8.00;;;7.10;;
1082;SDS011;530;51.448;7.238;2023-04-01T22:36:33;6.47;;;5.87;;
1082;SDS011;530;51.448;7.238;2023-04-01T22:50:34;8.37;;;7.43;;
1082;SDS011;530;51.448;7.238;2023-04-01T22:53:27;7.87;;;7.07;;
1082;SDS011;530;51.448;7.238;2023-04-01T22:56:18;8.97;;;7.70;;
1082;SDS011;530;51.448;7.238;2023-04-01T22:58:55;9.30;;;7.47;;
1082;SDS011;530;51.448;7.238;2023-04-01T23:01:36;9.70;;;8.67;;
1082;SDS011;530;51.448;7.238;2023-04-01T23:04:37;8.37;;;7.47;;
1082;SDS011;530;51.448;7.238;2023-04-01T23:07:14;7.43;;;6.67;;
1082;SDS011;530;51.448;7.238;2023-04-01T23:09:56;7.23;;;6.53;;
1082;SDS011;530;51.448;7.238;2023-04-01T23:12:26;7.50;;;6.80;;
1082;SDS011;530;51.448;7.238;2023-04-01T23:15:00;6.43;;;5.83;;
1082;SDS011;530;51.448;7.238;2023-04-01T23:20:13;5.57;;;5.07;;
1082;SDS011;530;51.448;7.238;2023-04-01T23:23:00;6.17;;;5.57;;
1082;SDS011;530;51.448;7.238;2023-04-01T23:35:53;5.60;;;5.10;;
1082;SDS011;530;51.448;7.238;2023-04-01T23:38:32;6.20;;;5.60;;
1082;SDS011;530;51.448;7.238;2023-04-01T23:41:01;7.40;;;6.70;;
1082;SDS011;530;51.448;7.238;2023-04-01T23:43:31;7.67;;;6.87;;
1082;SDS011;530;51.448;7.238;2023-04-01T23:46:03;8.43;;;7.60;;
1082;SDS011;530;51.448;7.238;2023-04-01T23:48:36;8.73;;;7.87;;
1082;SDS011;530;51.448;7.238;2023-04-01T23:51:10;8.03;;;7.23;;
1082;SDS011;530;51.448;7.238;2023-04-01T23:53:43;8.97;;;7.80;;
1082;SDS011;530;51.448;7.238;2023-04-01T23:56:11;8.60;;;7.70;;
1082;SDS011;530;51.448;7.238;2023-04-01T23:58:47;8.67;;;7.77;;
